Park Falls, WI

8:05 AM CDT on August 24, 2016 (GMT -0500)
RAWS | | Change Station

Elev 1567 ft 45.93 °N, 90.18 °W | Updated 1 hour ago

Drizzle
Drizzle
64.0 °F
Feels Like 64.0 °F
N
2.0
Wind Variable Wind from SSE
Gusts 6.0 mph

Today
High -- | Low -- °F
--% Chance of Precip.
Yesterday
High -- | Low -- °F
Precip. -- in
Pressure 29.82 in
Visibility 1.5 miles
Clouds Overcast 300 ft
Dew Point 64.0 °F
Humidity 99%
Rainfall in
Snow Depth Not available.
6:12 AM 7:52 PM
Waning Gibbous, 57% visible
METAR KPBH 241255Z AUTO 21004KT 1 1/2SM DZ OVC003 18/18 A2982 RMK AO2 P0003 T01820182
Pressure 29.82 in
Visibility 1.5 miles
Clouds Overcast 300 ft
Dew Point 64.0 °F
Humidity 99%
Rainfall in
Snow Depth Not available.
6:12 AM 7:52 PM
Waning Gibbous, 57% visible
METAR KPBH 241255Z AUTO 21004KT 1 1/2SM DZ OVC003 18/18 A2982 RMK AO2 P0003 T01820182

10-Day Weather Forecast

Almanac

Astronomy

Aug. 24, 2016 Rise Set
Actual Time
Civil Twilight
Nautical Twilight
Astronomical Twilight
Moon
Length of Visible Light
Length of Day
Tomorrow will be .
, % of the Moon is Illuminated

Today's Extremes

State Highs State Lows

Community

WunderPhotos

Upload Photos

1,934,586 photos uploaded!

WunderBlog® & News

Nearby

Air Quality

  Air Quality AQ Index Pollutant
Not available.

Snow Depth

Station Depth Elevation

Earthquake Activity

City Distance Mag. Time & Date
Minimum magnitude displayed is 2.5.

Coastal Water Temperatures

Place Temperature

Stations

Nearby Weather Stations

Station Location Temp. Windchill Dew Point Humidity Wind Precip. Elev Updated Type
                   

Watches & Warnings

There are currently no watches in effect.